Latest Coastal Weather Observations for Truscott

IDD60701

Issued at 2:21 am CST Friday 20 September 2019 (issued every 10 minutes, with the page automatically refreshed every 10 minutes)

About coastal observations | Map of coastal stations | Coastal observations for NT | Marine services | Other Formats
Station Details ID: 001020 Name: TRUSCOTT Lat: -14.09 Lon: 126.39 Height: 51.0 m
Data from the previous 72 hours. | See also: Recent months at Truscott
Date/Time
CST
Wind Sea
Height
m
Swell Vis
km
Cloud Weather Temp
°C
Press
hPa
Rain since
9am
mm
Dir  Spd
kts
Gust
kts
Height
m
Period
s
Dir
20/02:00am SW 6 9 - - - - 10 - - 24.0 1012.9 0.0
20/01:30am WSW 6 7 - - - - 10 - - 24.1 1013.1 0.0
20/01:00am WSW 6 8 - - - - 10 - - 24.2 1013.4 0.0
20/12:30am WSW 5 7 - - - - 10 - - 24.1 1013.8 0.0
20/12:00am WSW 4 6 - - - - 10 - - 24.0 1014.1 0.0
 
Date/Time
CST
Wind Sea
Height
m
Swell Vis
km
Cloud Weather Temp
°C
Press
hPa
Rain since
9am
mm
Dir  Spd
kts
Gust
kts
Height
m
Period
s
Dir
19/11:30pm WSW 5 6 - - - - 10 - - 24.3 1014.2 0.0
19/11:00pm WSW 5 7 - - - - 10 - - 24.5 1014.2 0.0
19/10:30pm WSW 6 8 - - - - 10 - - 24.7 1013.9 0.0
19/10:00pm WSW 7 9 - - - - 10 - - 24.7 1014.0 0.0
19/09:30pm WSW 6 8 - - - - 10 - - 24.9 1013.8 0.0
19/09:00pm W 6 8 - - - - 10 - - 25.3 1013.7 0.0
19/08:30pm W 6 8 - - - - 10 - - 25.6 1013.6 0.0
19/08:00pm W 5 6 - - - - 10 - - 25.7 1013.4 0.0
19/07:30pm NW 5 7 - - - - 10 - - 25.6 1012.9 0.0
19/07:00pm NW 5 7 - - - - 10 - - 26.0 1012.8 0.0
19/06:30pm NW 6 9 - - - - 10 - - 26.8 1012.6 0.0
19/06:00pm NW 8 11 - - - - 10 - - 27.4 1012.4 0.0
19/05:30pm NW 9 14 - - - - 10 - - 27.8 1012.3 0.0
19/05:00pm NW 11 15 - - - - 10 - - 27.6 1012.3 0.0
19/04:30pm NNW 9 14 - - - - 10 - - 28.6 1012.2 0.0
19/04:00pm N 9 16 - - - - 10 - - 28.5 1012.5 0.0
19/03:30pm NNW 11 19 - - - - 10 - - 28.5 1012.7 0.0
19/03:00pm NNW 9 14 - - - - 10 - - 28.4 1013.2 0.0
19/02:30pm NNW 8 13 - - - - 10 Partly cloudy - 29.4 1013.2 0.0
19/02:00pm NNW 10 15 - - - - 10 Partly cloudy - 28.5 1013.7 0.0
19/01:30pm NNW 10 14 - - - - 10 Mostly clear - 28.0 1013.9 0.0
19/01:00pm NNW 11 16 - - - - 10 - - 28.3 1014.5 0.0
19/12:30pm NNW 9 16 - - - - 10 - - 28.3 1015.0 0.0
19/12:00pm N 10 14 - - - - 10 - - 27.9 1015.5 0.0
19/11:30am N 9 13 - - - - 10 - - 28.1 1015.6 0.0
19/11:00am NNW 9 15 - - - - 10 - - 27.8 1015.9 0.0
19/10:30am N 6 11 - - - - 10 - - 28.4 1016.0 0.0
19/10:00am NNE 5 7 - - - - 10 - - 27.5 1016.0 0.0
19/09:30am N 6 8 - - - - 10 - - 26.4 1015.9 0.0
19/09:00am N 5 9 - - - - 10 - - 25.6 1015.6 0.0
19/08:30am N 6 13 - - - - 10 - - 24.9 1015.7 0.0
19/08:00am SSW 7 9 - - - - 10 - - 23.6 1014.5 0.0
19/07:30am SW 7 9 - - - - 10 - - 23.0 1014.3 0.0
19/07:00am SW 7 10 - - - - 10 - - 22.7 1014.4 0.0
19/06:30am SSW 7 9 - - - - 10 - - 22.7 1014.1 0.0
19/06:00am SSW 7 9 - - - - 10 - - 22.8 1013.9 0.0
19/05:30am SSW 5 7 - - - - 10 - - 22.3 1013.8 0.0
19/05:00am S 4 5 - - - - 10 - - 21.7 1013.7 0.0
19/04:30am SSW 4 6 - - - - 10 - - 22.4 1013.2 0.0
19/04:00am SSW 5 7 - - - - 10 - - 22.6 1013.3 0.0
19/03:30am SW 5 6 - - - - 10 - - 22.9 1013.3 0.0
19/03:00am WSW 5 7 - - - - 10 - - 23.2 1013.6 0.0
19/02:30am WSW 5 7 - - - - 10 - - 23.5 1014.0 0.0
19/02:00am WSW 5 7 - - - - 10 - - 23.5 1014.1 0.0
19/01:30am WSW 5 8 - - - - 10 - - 23.7 1014.3 0.0
19/01:00am SW 4 7 - - - - 10 - - 23.5 1014.9 0.0
19/12:30am WSW 5 7 - - - - 10 - - 23.6 1015.0 0.0
19/12:00am WSW 5 6 - - - - 10 - - 23.6 1015.3 0.0
 
Date/Time
CST
Wind Sea
Height
m
Swell Vis
km
Cloud Weather Temp
°C
Press
hPa
Rain since
9am
mm
Dir  Spd
kts
Gust
kts
Height
m
Period
s
Dir
18/11:30pm WSW 5 7 - - - - 10 - - 23.7 1015.6 0.0
18/11:00pm SW 5 6 - - - - 10 - - 23.7 1015.8 0.0
18/10:30pm WSW 5 7 - - - - 10 - - 24.0 1015.7 0.0
18/10:00pm WSW 4 6 - - - - 10 - - 24.2 1015.7 0.0
18/09:30pm W 3 4 - - - - 10 - - 24.0 1015.6 0.0
18/09:00pm WNW 2 4 - - - - 10 - - 23.8 1015.3 0.0
18/08:30pm WNW 3 4 - - - - 10 - - 24.2 1015.0 0.0
18/08:00pm NW 4 5 - - - - 10 - - 24.6 1014.7 0.0
18/07:30pm NW 4 6 - - - - 10 - - 25.0 1014.3 0.0
18/07:00pm NW 6 8 - - - - 10 - - 25.4 1014.2 0.0
18/06:30pm NNW 7 9 - - - - 10 - - 26.0 1014.0 0.0
18/06:00pm NNW 7 10 - - - - 10 - - 26.7 1013.9 0.0
18/05:30pm NNW 8 11 - - - - 10 - - 27.0 1013.7 0.0
18/05:00pm NNW 9 12 - - - - 10 - - 27.5 1013.7 0.0
18/04:30pm NNW 7 12 - - - - 10 - - 28.1 1013.6 0.0
18/04:00pm N 10 17 - - - - 10 - - 27.8 1013.7 0.0
18/03:30pm N 10 14 - - - - 10 - - 28.5 1014.0 0.0
18/03:00pm N 10 15 - - - - 10 - - 28.6 1014.3 0.0
18/02:30pm NNW 11 16 - - - - 10 - - 28.8 1014.8 0.0
18/02:00pm N 10 14 - - - - 10 - - 29.0 1015.1 0.0
18/01:30pm N 10 15 - - - - 10 - - 28.6 1015.4 0.0
18/01:00pm N 10 16 - - - - 10 Partly cloudy - 28.8 1015.9 0.0
18/12:30pm N 10 15 - - - - 10 - - 28.9 1016.3 0.0
18/12:00pm N 8 12 - - - - 10 Partly cloudy - 29.1 1016.6 0.0
18/11:30am NW 7 9 - - - - 10 Partly cloudy - 28.8 1016.9 0.0
18/11:00am WNW 7 11 - - - - 10 Partly cloudy - 28.2 1017.0 0.0
18/10:30am SSW 4 7 - - - - 10 - - 28.6 1017.2 0.0
18/10:00am S 3 6 - - - - 10 - - 27.8 1017.2 0.0
18/09:30am SW 5 7 - - - - 10 - - 26.5 1017.3 0.0
18/09:00am W 4 6 - - - - 10 - - 25.6 1017.0 0.0
18/08:30am CALM 0 2 - - - - 10 - - 24.8 1016.8 0.0
18/08:00am N 1 5 - - - - 10 - - 23.8 1016.7 0.0
18/07:30am W 4 6 - - - - 10 - - 21.8 1015.9 0.0
18/07:00am WSW 1 4 - - - - 10 - - 20.9 1016.0 0.0
18/06:30am CALM 0 0 - - - - 10 - - 20.6 1015.8 0.0
18/06:00am CALM 0 0 - - - - 10 - - 20.8 1015.4 0.0
18/05:30am CALM 0 0 - - - - 10 - - 20.6 1015.4 0.0
18/05:00am CALM 0 0 - - - - 10 - - 20.8 1015.2 0.0
18/04:30am SW 1 3 - - - - 10 - - 21.0 1014.9 0.0
18/04:00am CALM 0 0 - - - - 10 - - 21.1 1014.7 0.0
18/03:30am SW 2 4 - - - - 10 - - 21.2 1014.8 0.0
18/03:00am WNW 3 5 - - - - 10 - - 22.0 1014.8 0.0
18/02:30am CALM 0 0 - - - - 10 - - 21.4 1014.9 0.0
18/02:00am CALM 0 3 - - - - 10 - - 22.3 1015.1 0.0
18/01:30am NW 4 5 - - - - 10 - - 22.4 1015.2 0.0
18/01:00am CALM 0 4 - - - - 10 - - 22.0 1015.7 0.0
18/12:30am W 3 4 - - - - 10 - - 22.8 1015.9 0.0
18/12:00am W 2 5 - - - - 10 - - 22.9 1016.1 0.0
 
Date/Time
CST
Wind Sea
Height
m
Swell Vis
km
Cloud Weather Temp
°C
Press
hPa
Rain since
9am
mm
Dir  Spd
kts
Gust
kts
Height
m
Period
s
Dir
17/11:30pm W 3 4 - - - - 10 - - 23.4 1016.4 0.0
17/11:00pm WNW 3 5 - - - - 10 - - 23.3 1016.3 0.0
17/10:30pm WNW 3 4 - - - - 10 - - 23.2 1016.5 0.0
17/10:00pm WNW 3 5 - - - - 10 - - 23.5 1016.4 0.0
17/09:30pm NNW 3 4 - - - - 10 - - 23.5 1016.1 0.0
17/09:00pm NNW 3 4 - - - - 10 - - 24.1 1015.7 0.0
17/08:30pm NNW 4 5 - - - - 10 - - 24.3 1015.2 0.0
17/08:00pm NW 4 7 - - - - 10 - - 24.6 1014.8 0.0
17/07:30pm NW 5 7 - - - - 10 - - 24.9 1014.1 0.0
17/07:00pm NNW 7 9 - - - - 10 - - 25.4 1014.0 0.0
17/06:30pm NNW 7 10 - - - - 10 - - 25.7 1013.4 0.0
17/06:00pm N 9 12 - - - - 10 - - 26.0 1013.0 0.0
17/05:30pm N 7 11 - - - - 10 - - 27.2 1012.9 0.0
17/05:00pm NNW 8 13 - - - - 10 - - 28.0 1012.5 0.0
17/04:30pm N 9 12 - - - - 10 - - 28.3 1012.3 0.0
17/04:00pm NNW 7 12 - - - - 10 - - 29.3 1012.5 0.0
17/03:30pm NW 9 13 - - - - 10 - - 29.0 1012.8 0.0
17/03:00pm NNW 9 12 - - - - 10 - - 29.1 1013.2 0.0
17/02:30pm NW 8 11 - - - - 10 - - 29.6 1013.5 0.0
17/02:00pm NNW 8 12 - - - - 10 - - 29.3 1014.0 0.0
17/01:30pm NNW 8 13 - - - - 10 - - 29.2 1014.4 0.0
17/01:00pm NNW 8 11 - - - - 10 - - 29.3 1015.1 0.0
17/12:30pm NNW 8 11 - - - - 10 - - 28.8 1015.4 0.0
17/12:00pm N 8 16 - - - - 10 - - 29.9 1015.9 0.0
17/11:30am NNE 6 11 - - - - 10 - - 29.7 1016.2 0.0
17/11:00am N 5 8 - - - - 10 - - 28.5 1016.5 0.0
17/10:30am NNE 4 9 - - - - 10 - - 28.1 1016.6 0.0
17/10:00am ENE 4 7 - - - - 10 - - 27.3 1016.9 0.0
17/09:30am E 7 9 - - - - 10 - - 26.4 1016.9 0.0
17/09:00am SSE 4 6 - - - - 10 - - 25.4 1016.4 0.0
17/08:30am SE 5 9 - - - - 10 - - 24.2 1016.1 0.0
17/08:00am W 3 5 - - - - 10 - - 22.4 1015.2 0.0
17/07:30am NNE 2 5 - - - - 10 - - 21.7 1015.1 0.0
17/07:00am SW 6 8 - - - - 10 - - 21.9 1014.6 0.0
17/06:30am SW 5 8 - - - - 10 - - 22.0 1014.4 0.0
17/06:00am SSW 5 6 - - - - 10 - - 21.8 1014.5 0.0
17/05:30am SSW 3 5 - - - - 10 - - 22.1 1014.2 0.0
17/05:00am SW 6 7 - - - - 10 - - 22.2 1013.9 0.0
17/04:30am SSW 5 8 - - - - 10 - - 22.0 1013.5 0.0
17/04:00am SW 5 7 - - - - 10 - - 22.0 1013.6 0.0

Other formats

Comma delimited format used in spreadsheet applications
http://www.bom.gov.au/fwo/IDD60701/IDD60701.95101.axf

JavaScript Object Notation format (JSON) in row-major order
http://www.bom.gov.au/fwo/IDD60701/IDD60701.95101.json

Data quality

Most of these data are generated automatically and are frequently updated. Quality checks on data are not normally performed. It is possible for incorrect values to appear. Refer to information at About Latest Weather Observations and please check the disclaimer before using these data.